Aeroporto :
LOGIN :

Iscrizione | Disclaimer

   EN    FR    IT 

 










Sommario :    VFR   VFR Marginale   IFR   IFR Intensivo   IFR Molto Intensivo
Visibilità : 
Base nubi : 
>= 8 km
>= 3000ft
5 / 8 km
1000 / 3000 ft
1500m / 5 km
500 / 1000 ft
800 / 1500m
200 / 500 ft
< 800m
< 200 ft
Simboli :   Temporali  Nebbia  Neve Forte  Precipitazioni Forti  Vento > 20 kt
SIGMETs :   Varie  Temporali  Ghiacco  Turbolenza  Onda orograficha  Ceneri Vulcaniche






- Altitudine del aeroporto : 294 ft
- Codice IATA : NAP


LIRN - Naples Capodichino

ULTIMO METAR :
  • 291320Z 25009KT 210V280 9999 FEW040 22/07 Q1017 NOSIG

METARs OBSOLETI :
  • 291250Z 24007KT 200V270 9999 FEW040 23/08 Q1017 NOSIG
  • 291220Z 23008KT 200V270 9999 FEW040 23/09 Q1017 NOSIG
  • 291150Z 21009KT 180V260 9999 FEW040 23/10 Q1018 NOSIG
  • 291120Z 22009KT 180V250 9999 FEW040 23/09 Q1018 NOSIG
  • 291050Z 21007KT 170V250 9999 FEW040 24/07 Q1018 NOSIG

TAF TAF LIRN
Valido dal 29 a 12 ore il 30 a 12 ore UTC


291100Z 2912/3012 23010KT 9999 SCT030
TEMPO 2921/2924 SHRA
TEMPO 3000/3012 4000 TSRA



MetMap, La meteo Aeronautica in un colpo d'occhio ! - Copyright ORBIFLY Dicembre 2007 - Disclaimer

ORBIFLY MET'MAP TEAM :

Programmazione e sviluppo : Alexandra Zaïnal
Concezione : Baudouin d'Aumeries
Aiuto per la programmazione : Marc-Olivier Méhu
Supporto tecnico e logistico : Manuel Goepfert
Aiuto per la traduzione : Arnaldo La Scala

Contatto : metmap@orbifly.com




FONTI E CREDITI :

   NOAA